Time;durP1;ratioP1;P1;durP2;ratioP2;P2;SDS_P1;SDS_P2;PMS_P1;PMS_P2;Temp;Humidity;BMP_temperature;BMP_pressure;BME280_temperature;BME280_humidity;BME280_pressure;Samples;Min_cycle;Max_cycle;Signal;HPM_P1;HPM_P2
2022/01/17 00:00:59;;;;;;;16.38;2.08;;;6.90;99.90;;;;;;4975465;28;20047;-77
2022/01/17 00:03:26;;;;;;;11.52;2.35;;;7.00;99.90;;;;;;4962132;28;20125;-76
2022/01/17 00:05:54;;;;;;;17.70;3.38;;;7.00;99.90;;;;;;4991317;28;20122;-77
2022/01/17 00:08:20;;;;;;;13.40;1.75;;;7.30;99.90;;;;;;4955774;28;20053;-77
2022/01/17 00:10:47;;;;;;;16.88;2.65;;;7.00;99.90;;;;;;4991563;28;20430;-77
2022/01/17 00:13:22;;;;;;;15.13;1.90;;;7.20;99.90;;;;;;4990988;28;20058;-77
2022/01/17 00:15:52;;;;;;;13.20;2.17;;;6.90;99.90;;;;;;5000138;28;20097;-77
2022/01/17 00:20:46;;;;;;;13.05;1.63;;;7.00;99.90;;;;;;4998710;28;20046;-77
2022/01/17 00:23:16;;;;;;;15.13;1.63;;;7.00;99.90;;;;;;4987883;28;20046;-78
2022/01/17 00:25:42;;;;;;;11.05;1.70;;;6.90;99.90;;;;;;4989118;28;20570;-77
2022/01/17 00:28:08;;;;;;;15.75;2.17;;;6.90;99.90;;;;;;4991337;28;20038;-77
2022/01/17 00:30:34;;;;;;;13.73;2.00;;;7.70;99.90;;;;;;5001612;28;20470;-77
2022/01/17 00:33:00;;;;;;;15.10;2.42;;;7.30;99.90;;;;;;4992386;28;20038;-77
2022/01/17 00:35:26;;;;;;;12.60;1.83;;;6.90;99.90;;;;;;4985472;28;20049;-77
2022/01/17 00:37:52;;;;;;;17.65;2.00;;;6.80;99.90;;;;;;4984088;28;20038;-78
2022/01/17 00:40:19;;;;;;;16.25;2.03;;;7.60;99.90;;;;;;4995747;28;20050;-77
2022/01/17 00:42:44;;;;;;;16.35;2.28;;;7.80;99.90;;;;;;4992271;28;20073;-77
2022/01/17 00:45:13;;;;;;;16.92;2.00;;;7.20;99.90;;;;;;4987706;28;20096;-78
2022/01/17 00:47:40;;;;;;;12.32;1.60;;;6.90;99.90;;;;;;4991387;28;20414;-77
2022/01/17 00:50:06;;;;;;;15.25;1.45;;;6.80;99.90;;;;;;4985726;28;20046;-77
2022/01/17 00:52:32;;;;;;;10.63;1.65;;;6.80;99.90;;;;;;4991111;28;20046;-77
2022/01/17 00:54:58;;;;;;;14.95;2.08;;;7.50;99.90;;;;;;4995820;28;20042;-77
2022/01/17 00:57:24;;;;;;;16.40;2.25;;;6.80;99.90;;;;;;4987110;28;20061;-77
2022/01/17 00:59:49;;;;;;;19.27;1.83;;;6.80;99.90;;;;;;4994915;28;20078;-77
2022/01/17 01:02:15;;;;;;;11.13;1.30;;;7.00;99.90;;;;;;4990572;28;20051;-77
2022/01/17 01:04:41;;;;;;;12.25;1.35;;;6.80;99.90;;;;;;4992930;28;20057;-77
2022/01/17 01:07:07;;;;;;;19.08;2.55;;;6.90;99.90;;;;;;4987200;28;20495;-77
2022/01/17 01:09:41;;;;;;;14.32;1.88;;;7.10;99.90;;;;;;4976073;28;20133;-77
2022/01/17 01:12:07;;;;;;;14.43;1.80;;;7.20;99.90;;;;;;4974393;28;20054;-77
2022/01/17 01:14:32;;;;;;;12.80;2.38;;;6.90;99.90;;;;;;4983019;28;20503;-77
2022/01/17 01:17:06;;;;;;;16.50;1.70;;;6.80;99.90;;;;;;4991770;28;20442;-78
2022/01/17 01:19:40;;;;;;;13.35;1.80;;;6.80;99.90;;;;;;4982592;28;20056;-78
2022/01/17 01:27:42;;;;;;;17.60;2.17;;;6.80;99.90;;;;;;4981889;28;20050;-77
2022/01/17 01:30:11;;;;;;;16.65;2.20;;;6.80;99.90;;;;;;5009504;28;20101;-77
2022/01/17 01:32:46;;;;;;;11.40;1.70;;;6.80;99.90;;;;;;4991134;28;20501;-77
2022/01/17 01:35:15;;;;;;;17.52;2.13;;;6.70;99.90;;;;;;5001999;28;20058;-78
2022/01/17 01:37:44;;;;;;;13.70;1.90;;;6.70;99.90;;;;;;4995346;28;20149;-78
2022/01/17 01:40:10;;;;;;;21.75;2.38;;;7.20;99.90;;;;;;4980703;28;20051;-77
2022/01/17 01:42:36;;;;;;;17.88;2.03;;;6.70;99.90;;;;;;4993244;28;20062;-77
2022/01/17 01:45:05;;;;;;;13.10;1.80;;;6.90;99.90;;;;;;4964265;28;20046;-78
2022/01/17 01:47:31;;;;;;;15.77;1.88;;;6.70;99.90;;;;;;4982701;28;20100;-77
2022/01/17 01:49:57;;;;;;;13.85;2.35;;;7.00;99.90;;;;;;4982550;28;20144;-78
2022/01/17 01:52:24;;;;;;;13.20;1.70;;;6.60;99.90;;;;;;4993799;28;20042;-78
2022/01/17 01:54:49;;;;;;;11.30;1.90;;;6.90;99.90;;;;;;4995118;28;20084;-78
2022/01/17 01:57:15;;;;;;;17.40;2.63;;;6.60;99.90;;;;;;4978014;28;20125;-78
2022/01/17 01:59:41;;;;;;;15.93;1.80;;;6.70;99.90;;;;;;4993961;28;20521;-77
2022/01/17 02:02:07;;;;;;;20.20;2.08;;;6.70;99.90;;;;;;4967437;28;20386;-77
2022/01/17 02:04:33;;;;;;;18.85;2.25;;;6.50;99.90;;;;;;4963960;28;20038;-78
2022/01/17 02:06:59;;;;;;;17.85;2.38;;;6.50;99.90;;;;;;4993891;28;20431;-78
2022/01/17 02:09:24;;;;;;;14.75;2.55;;;6.50;99.90;;;;;;4996021;28;20054;-78
2022/01/17 02:11:51;;;;;;;12.25;1.58;;;6.50;99.90;;;;;;4994116;28;20133;-77
2022/01/17 02:14:17;;;;;;;12.50;2.53;;;6.50;99.90;;;;;;4994012;28;20058;-78
2022/01/17 02:16:45;;;;;;;14.93;1.63;;;6.50;99.90;;;;;;4977606;28;20049;-78
2022/01/17 02:19:12;;;;;;;14.20;1.80;;;6.50;99.90;;;;;;4989769;28;20057;-78
2022/01/17 02:21:47;;;;;;;14.38;1.73;;;7.10;99.90;;;;;;4991772;28;20585;-77
2022/01/17 02:24:21;;;;;;;14.13;2.15;;;6.40;99.90;;;;;;4983075;28;20085;-77
2022/01/17 02:26:49;;;;;;;15.38;2.10;;;7.30;99.90;;;;;;4993919;28;20133;-78
2022/01/17 02:29:15;;;;;;;13.50;1.60;;;6.40;99.90;;;;;;5004311;28;20046;-77
2022/01/17 02:31:42;;;;;;;18.85;1.92;;;6.40;99.90;;;;;;4980583;28;20054;-77
2022/01/17 02:34:08;;;;;;;11.93;1.60;;;6.60;99.90;;;;;;4980312;28;20042;-77
2022/01/17 02:36:33;;;;;;;10.07;1.60;;;6.40;99.90;;;;;;4992750;28;20049;-77
2022/01/17 02:39:01;;;;;;;18.40;2.20;;;6.40;99.90;;;;;;4995062;28;20084;-77
2022/01/17 02:41:35;;;;;;;15.18;2.97;;;6.40;99.90;;;;;;4992624;28;20137;-77
2022/01/17 02:44:02;;;;;;;13.82;1.90;;;6.30;99.90;;;;;;4978741;28;20052;-77
2022/01/17 02:46:28;;;;;;;22.70;2.47;;;6.30;99.90;;;;;;4993254;28;20411;-77
2022/01/17 02:48:59;;;;;;;14.23;1.70;;;6.40;99.90;;;;;;5002670;28;20046;-77
2022/01/17 02:51:28;;;;;;;16.33;2.25;;;6.30;99.90;;;;;;4991283;28;20059;-77
2022/01/17 02:53:54;;;;;;;19.85;2.35;;;6.30;99.90;;;;;;4991348;28;20065;-78
2022/01/17 02:56:21;;;;;;;12.77;2.20;;;6.30;99.90;;;;;;4997301;28;20042;-77
2022/01/17 02:58:47;;;;;;;17.60;2.17;;;7.10;99.90;;;;;;4984192;28;20462;-77
2022/01/17 03:01:20;;;;;;;23.60;2.80;;;6.30;99.90;;;;;;5000251;28;20061;-77
2022/01/17 03:03:46;;;;;;;19.45;2.00;;;6.30;99.90;;;;;;4997767;28;20089;-77
2022/01/17 03:06:13;;;;;;;16.75;1.95;;;6.70;99.90;;;;;;5014126;28;20121;-77
2022/01/17 03:08:40;;;;;;;12.35;1.70;;;6.30;99.90;;;;;;4976731;28;20054;-77
2022/01/17 03:11:09;;;;;;;13.80;2.20;;;6.70;99.90;;;;;;4995256;28;20507;-77
2022/01/17 03:13:37;;;;;;;19.50;2.05;;;6.30;99.90;;;;;;4986645;28;20058;-77
2022/01/17 03:16:13;;;;;;;11.77;2.15;;;6.30;99.90;;;;;;4973961;28;20070;-77
2022/01/17 03:18:41;;;;;;;18.50;2.17;;;6.30;99.90;;;;;;5004250;28;20042;-77
2022/01/17 03:21:09;;;;;;;10.60;1.60;;;6.80;99.90;;;;;;4983160;28;20086;-77
2022/01/17 03:23:35;;;;;;;12.60;1.35;;;6.40;99.90;;;;;;4989451;28;20086;-77
2022/01/17 03:26:01;;;;;;;13.32;1.80;;;6.40;99.90;;;;;;4988678;28;20077;-77
2022/01/17 03:28:27;;;;;;;16.38;1.98;;;7.20;99.90;;;;;;4979937;28;20054;-77
2022/01/17 03:30:54;;;;;;;10.68;1.58;;;6.40;99.90;;;;;;4963536;28;20042;-77
2022/01/17 03:33:20;;;;;;;18.02;2.10;;;6.50;99.90;;;;;;4994123;28;20053;-77
2022/01/17 03:35:46;;;;;;;10.95;1.55;;;6.80;99.90;;;;;;4991063;28;20053;-77
2022/01/17 03:38:14;;;;;;;13.60;1.27;;;6.50;99.90;;;;;;4994245;28;20462;-77
2022/01/17 03:40:41;;;;;;;16.13;1.80;;;6.90;99.90;;;;;;4976491;28;20044;-77
2022/01/17 03:43:07;;;;;;;9.75;1.40;;;6.60;99.90;;;;;;5001442;28;20394;-77
2022/01/17 03:45:33;;;;;;;9.20;1.40;;;6.60;99.90;;;;;;4992112;28;20074;-77
2022/01/17 03:47:59;;;;;;;11.93;1.75;;;6.90;99.90;;;;;;4970993;28;20058;-77
2022/01/17 03:50:26;;;;;;;12.13;1.88;;;6.60;99.90;;;;;;4995853;28;20137;-77
2022/01/17 03:52:52;;;;;;;10.43;1.30;;;6.80;99.90;;;;;;4949803;28;20050;-78
2022/01/17 03:55:20;;;;;;;16.95;2.63;;;6.60;99.90;;;;;;4975462;28;20050;-78
2022/01/17 03:57:46;;;;;;;14.52;1.58;;;6.60;99.90;;;;;;4976036;28;20085;-77
2022/01/17 04:00:22;;;;;;;17.02;2.35;;;7.00;99.90;;;;;;4991319;28;20053;-77
2022/01/17 04:02:49;;;;;;;17.17;1.83;;;6.60;99.90;;;;;;4989957;28;20053;-78
2022/01/17 04:05:15;;;;;;;15.68;1.48;;;6.60;99.90;;;;;;4975520;28;20050;-78
2022/01/17 04:07:41;;;;;;;16.58;1.88;;;6.60;99.90;;;;;;4974983;28;20050;-78
2022/01/17 04:10:07;;;;;;;11.32;1.75;;;7.30;99.90;;;;;;4975169;28;21225;-77
2022/01/17 04:12:33;;;;;;;14.70;1.80;;;6.60;99.90;;;;;;4994813;28;20077;-78
2022/01/17 04:14:59;;;;;;;16.73;2.65;;;7.30;99.90;;;;;;4975602;28;20084;-78
2022/01/17 04:17:28;;;;;;;9.70;1.52;;;7.10;99.90;;;;;;4991765;28;20049;-77
2022/01/17 04:20:07;;;;;;;12.70;1.77;;;6.50;99.90;;;;;;4975283;28;20050;-78
2022/01/17 04:22:37;;;;;;;9.57;1.63;;;6.50;99.90;;;;;;4976779;28;20054;-77
2022/01/17 04:25:04;;;;;;;12.85;1.92;;;6.50;99.90;;;;;;5001316;28;20101;-77
2022/01/17 04:27:30;;;;;;;15.55;1.90;;;6.50;99.90;;;;;;4991212;28;20050;-77
2022/01/17 04:29:55;;;;;;;17.85;2.00;;;6.60;99.90;;;;;;4991196;28;20058;-77
2022/01/17 04:32:21;;;;;;;8.10;2.58;;;6.60;99.90;;;;;;4974980;28;20043;-78
2022/01/17 04:34:47;;;;;;;15.30;2.13;;;6.70;99.90;;;;;;4974974;28;20399;-77
2022/01/17 04:37:13;;;;;;;14.07;1.73;;;6.60;99.90;;;;;;4990952;28;20038;-78
2022/01/17 04:39:38;;;;;;;10.35;1.50;;;6.60;99.90;;;;;;4975366;28;20232;-77
2022/01/17 04:42:11;;;;;;;18.75;1.98;;;7.20;99.90;;;;;;4973923;28;20078;-77
2022/01/17 04:47:22;;;;;;;12.00;1.80;;;6.70;99.90;;;;;;4991114;28;20061;-77
2022/01/17 04:49:47;;;;;;;15.90;2.20;;;6.70;99.90;;;;;;4975038;28;20406;-78
2022/01/17 04:52:14;;;;;;;17.45;1.85;;;6.70;99.90;;;;;;4959801;28;20042;-77
2022/01/17 04:54:42;;;;;;;15.77;1.75;;;6.70;99.90;;;;;;4975105;28;20042;-77
2022/01/17 04:57:09;;;;;;;15.00;1.90;;;7.00;99.90;;;;;;4991038;28;20407;-77
2022/01/17 04:59:36;;;;;;;14.60;2.22;;;6.80;99.90;;;;;;4991007;28;20492;-77
2022/01/17 05:02:02;;;;;;;18.98;2.28;;;6.80;99.90;;;;;;4997653;28;20056;-77
2022/01/17 05:04:28;;;;;;;17.05;2.20;;;6.90;99.90;;;;;;4983740;28;20049;-77
2022/01/17 05:06:54;;;;;;;11.52;2.03;;;6.90;99.90;;;;;;4995083;28;20050;-77
2022/01/17 05:09:20;;;;;;;14.38;1.98;;;7.40;99.90;;;;;;4978942;28;20510;-77
2022/01/17 05:11:45;;;;;;;15.32;2.28;;;7.00;99.90;;;;;;4977802;28;20152;-77
2022/01/17 05:14:11;;;;;;;14.40;1.88;;;7.00;99.90;;;;;;4978710;28;20081;-78
2022/01/17 05:16:44;;;;;;;11.93;1.60;;;7.10;99.90;;;;;;4994540;28;20129;-77
2022/01/17 05:21:54;;;;;;;13.40;1.90;;;8.00;99.90;;;;;;4981666;28;20501;-78
2022/01/17 05:24:20;;;;;;;12.70;1.83;;;7.20;99.90;;;;;;4980367;28;20073;-77
2022/01/17 05:26:46;;;;;;;14.40;2.42;;;7.20;99.90;;;;;;4970034;28;20136;-77
2022/01/17 05:29:13;;;;;;;10.77;1.70;;;7.20;99.90;;;;;;4990085;28;20089;-77
2022/01/17 05:31:39;;;;;;;16.67;2.60;;;7.20;99.90;;;;;;4993691;28;20525;-77
2022/01/17 05:34:04;;;;;;;18.90;2.40;;;7.30;99.90;;;;;;4994811;28;20042;-78
2022/01/17 05:36:33;;;;;;;15.38;2.05;;;7.30;99.90;;;;;;4989576;28;20074;-77
2022/01/17 05:38:59;;;;;;;11.23;1.83;;;7.30;99.90;;;;;;4978169;28;20046;-77
2022/01/17 05:41:24;;;;;;;13.63;2.20;;;7.30;99.90;;;;;;4994183;28;20053;-78
2022/01/17 05:43:50;;;;;;;10.75;1.50;;;7.30;99.90;;;;;;4977420;28;20142;-77
2022/01/17 05:46:16;;;;;;;11.68;1.88;;;7.30;99.90;;;;;;4962106;28;20053;-78
2022/01/17 05:48:42;;;;;;;14.60;2.20;;;7.40;99.90;;;;;;4993929;28;20057;-78
2022/01/17 05:51:07;;;;;;;17.70;2.30;;;7.50;99.90;;;;;;4994019;28;20053;-78
2022/01/17 05:53:33;;;;;;;16.65;2.28;;;7.40;99.90;;;;;;4993427;28;20537;-78
2022/01/17 05:55:59;;;;;;;17.25;2.30;;;7.90;99.90;;;;;;4993800;28;20134;-78
2022/01/17 05:58:25;;;;;;;17.67;2.63;;;7.40;99.90;;;;;;4994063;28;20061;-78
2022/01/17 06:00:52;;;;;;;18.92;2.88;;;7.40;99.90;;;;;;4977144;28;20058;-78
2022/01/17 06:03:17;;;;;;;18.45;4.25;;;7.90;99.90;;;;;;4982690;28;20108;-77
2022/01/17 06:05:43;;;;;;;15.82;2.85;;;7.50;99.90;;;;;;4993376;28;20396;-79
2022/01/17 06:08:09;;;;;;;14.60;2.30;;;7.50;99.90;;;;;;4977511;28;20488;-78
2022/01/17 06:10:35;;;;;;;27.00;2.40;;;7.50;99.90;;;;;;4993143;28;20054;-77
2022/01/17 06:13:01;;;;;;;19.63;2.67;;;7.50;99.90;;;;;;4960627;28;20061;-77
2022/01/17 06:15:27;;;;;;;15.48;2.90;;;8.00;99.90;;;;;;4977664;28;20483;-78
2022/01/17 06:17:53;;;;;;;16.85;3.00;;;7.50;99.90;;;;;;4993706;28;20045;-77
2022/01/17 06:20:19;;;;;;;15.63;2.45;;;7.50;99.90;;;;;;4993566;28;20054;-77
2022/01/17 06:22:45;;;;;;;16.70;2.88;;;7.60;99.90;;;;;;4977018;28;20046;-77
2022/01/17 06:25:11;;;;;;;11.93;2.17;;;7.60;99.90;;;;;;4992722;28;20479;-78
2022/01/17 06:27:37;;;;;;;17.42;2.60;;;7.60;99.90;;;;;;4977534;28;20042;-77
2022/01/17 06:30:04;;;;;;;17.45;2.63;;;7.60;99.90;;;;;;4993339;28;20132;-77
2022/01/17 06:32:31;;;;;;;14.85;2.95;;;7.60;99.90;;;;;;4993547;28;20042;-78
2022/01/17 06:34:57;;;;;;;15.07;2.75;;;7.70;99.90;;;;;;4977095;28;20541;-78
2022/01/17 06:37:24;;;;;;;20.83;3.08;;;7.60;99.90;;;;;;4992722;28;20046;-77
2022/01/17 06:39:51;;;;;;;19.75;3.47;;;7.70;99.90;;;;;;4976616;28;20058;-77
2022/01/17 06:42:17;;;;;;;17.60;4.13;;;7.70;99.90;;;;;;4992682;28;20073;-77
2022/01/17 06:44:43;;;;;;;15.73;2.92;;;7.70;99.90;;;;;;4976975;28;20082;-78
2022/01/17 06:47:09;;;;;;;22.48;3.60;;;7.60;99.90;;;;;;4992628;28;20046;-78
2022/01/17 06:49:34;;;;;;;26.30;3.42;;;7.70;99.90;;;;;;4976866;28;20081;-77
2022/01/17 06:52:00;;;;;;;19.92;3.30;;;7.60;99.90;;;;;;4960278;28;20562;-77
2022/01/17 06:54:26;;;;;;;18.77;3.28;;;7.70;99.90;;;;;;4976180;28;20069;-77
2022/01/17 06:56:52;;;;;;;21.83;3.30;;;7.90;99.90;;;;;;4976471;28;20050;-77
2022/01/17 06:59:18;;;;;;;24.98;3.63;;;7.70;99.90;;;;;;4976776;28;20476;-77
2022/01/17 07:01:43;;;;;;;20.95;3.90;;;7.70;99.90;;;;;;4992339;28;20395;-77
2022/01/17 07:04:11;;;;;;;20.70;3.05;;;7.70;99.90;;;;;;4992699;28;20515;-78
2022/01/17 07:06:40;;;;;;;24.08;3.45;;;7.80;99.90;;;;;;4992172;28;20065;-78
2022/01/17 07:09:09;;;;;;;16.00;2.95;;;7.80;99.90;;;;;;4993070;28;20125;-77
2022/01/17 07:11:41;;;;;;;22.55;3.55;;;7.80;99.90;;;;;;4975538;28;20100;-77
2022/01/17 07:14:08;;;;;;;18.30;3.17;;;7.80;99.90;;;;;;4992299;28;20406;-78
2022/01/17 07:16:39;;;;;;;21.90;3.78;;;7.80;99.90;;;;;;4959993;28;20058;-78
2022/01/17 07:19:06;;;;;;;28.83;4.40;;;7.80;99.90;;;;;;4992804;28;20042;-77
2022/01/17 07:21:32;;;;;;;19.80;3.97;;;7.90;99.90;;;;;;4975683;28;20137;-77
2022/01/17 07:23:59;;;;;;;23.02;3.25;;;8.00;99.90;;;;;;4991474;28;20050;-78
2022/01/17 07:26:25;;;;;;;28.88;3.55;;;7.90;99.90;;;;;;4975757;28;20069;-77
2022/01/17 07:28:51;;;;;;;28.98;3.53;;;7.90;99.90;;;;;;4992572;28;20058;-77
2022/01/17 07:31:18;;;;;;;27.52;3.72;;;7.90;99.90;;;;;;4991392;28;20073;-77
2022/01/17 07:33:43;;;;;;;23.27;3.33;;;8.60;99.90;;;;;;4976016;28;20451;-77
2022/01/17 07:36:12;;;;;;;23.38;3.70;;;7.90;99.90;;;;;;4943476;28;20554;-75
2022/01/17 07:38:38;;;;;;;26.77;3.42;;;7.90;99.90;;;;;;4991825;28;20050;-74
2022/01/17 07:41:04;;;;;;;19.45;3.38;;;8.00;99.90;;;;;;4974483;28;20078;-74
2022/01/17 07:43:30;;;;;;;24.30;4.65;;;8.00;99.90;;;;;;4959623;28;20247;-73
2022/01/17 07:46:04;;;;;;;29.20;4.03;;;8.00;99.90;;;;;;4991355;28;20407;-77
2022/01/17 07:51:16;;;;;;;26.95;3.42;;;8.70;99.90;;;;;;4991513;28;20082;-78
2022/01/17 07:53:42;;;;;;;16.20;2.90;;;8.30;99.90;;;;;;4992285;28;20084;-77
2022/01/17 07:56:07;;;;;;;27.80;3.67;;;8.10;99.90;;;;;;4975370;28;20472;-75
2022/01/17 07:58:33;;;;;;;18.73;2.97;;;8.10;99.90;;;;;;4974588;28;20042;-75
2022/01/17 08:00:59;;;;;;;25.40;4.13;;;8.10;99.90;;;;;;4990819;28;20039;-75
2022/01/17 08:03:25;;;;;;;20.13;3.35;;;8.20;99.90;;;;;;4998740;28;20061;-75
2022/01/17 08:05:50;;;;;;;30.35;3.92;;;8.20;99.90;;;;;;4987533;28;20042;-75
2022/01/17 08:08:16;;;;;;;27.85;4.05;;;8.20;99.90;;;;;;5003964;28;20049;-75
2022/01/17 08:10:42;;;;;;;26.30;3.40;;;8.30;99.90;;;;;;4975967;28;20092;-75
2022/01/17 08:13:09;;;;;;;21.42;3.72;;;8.30;99.90;;;;;;4960746;28;20459;-75
2022/01/17 08:15:37;;;;;;;29.08;4.07;;;8.30;99.90;;;;;;4974054;28;20056;-75
2022/01/17 08:18:04;;;;;;;22.00;3.00;;;8.40;99.90;;;;;;4990848;28;20046;-75
2022/01/17 08:20:30;;;;;;;28.55;3.20;;;8.40;99.90;;;;;;4989979;28;20054;-74
2022/01/17 08:22:57;;;;;;;20.77;3.08;;;8.40;99.90;;;;;;5008055;28;20050;-74
2022/01/17 08:25:23;;;;;;;29.00;3.28;;;8.40;99.90;;;;;;4974331;28;20050;-74
2022/01/17 08:27:49;;;;;;;24.30;3.78;;;8.40;99.90;;;;;;4975071;28;20058;-74
2022/01/17 08:30:15;;;;;;;25.98;3.20;;;8.40;99.90;;;;;;4990711;28;20046;-74
2022/01/17 08:32:41;;;;;;;15.68;2.92;;;8.50;99.90;;;;;;4991187;28;20053;-74
2022/01/17 08:35:07;;;;;;;28.17;3.67;;;8.50;99.90;;;;;;4973775;28;20515;-74
2022/01/17 08:37:34;;;;;;;28.17;3.38;;;8.50;99.90;;;;;;4958395;28;20124;-74
2022/01/17 08:40:02;;;;;;;21.48;3.30;;;8.60;99.90;;;;;;4990859;28;20150;-74
2022/01/17 08:42:29;;;;;;;31.45;3.97;;;8.50;99.90;;;;;;4974189;28;20051;-75
2022/01/17 08:44:56;;;;;;;27.23;3.42;;;8.60;99.90;;;;;;4981249;28;20097;-74
2022/01/17 08:47:23;;;;;;;23.42;3.35;;;8.50;99.90;;;;;;4975378;28;20065;-74
2022/01/17 08:49:49;;;;;;;30.02;4.28;;;8.40;99.90;;;;;;4962708;28;20582;-74
2022/01/17 08:52:16;;;;;;;33.05;4.20;;;8.60;99.90;;;;;;4975869;28;20129;-75
2022/01/17 08:54:43;;;;;;;30.23;4.00;;;8.60;99.90;;;;;;4972932;28;20047;-74
2022/01/17 08:57:09;;;;;;;33.88;4.85;;;8.60;99.90;;;;;;4987407;28;20081;-76
2022/01/17 08:59:34;;;;;;;25.02;3.13;;;8.70;99.90;;;;;;4989505;28;20140;-75
2022/01/17 09:02:00;;;;;;;31.70;4.15;;;8.70;99.90;;;;;;4990623;28;20062;-74
2022/01/17 09:04:26;;;;;;;34.85;4.07;;;8.70;99.90;;;;;;4991064;28;20042;-75
2022/01/17 09:06:52;;;;;;;28.58;3.67;;;8.80;99.90;;;;;;5005060;28;20140;-74
2022/01/17 09:09:18;;;;;;;34.58;3.53;;;9.30;99.90;;;;;;4973651;28;20038;-74
2022/01/17 09:11:44;;;;;;;34.10;4.10;;;9.10;99.90;;;;;;4989871;28;20132;-74
2022/01/17 09:14:10;;;;;;;40.33;3.75;;;8.90;99.90;;;;;;4991074;28;20564;-74
2022/01/17 09:16:37;;;;;;;25.88;3.85;;;9.30;99.90;;;;;;4991006;28;20488;-74
2022/01/17 09:19:04;;;;;;;27.90;3.70;;;9.00;99.90;;;;;;4990602;28;20055;-74
2022/01/17 09:21:31;;;;;;;31.10;3.67;;;9.10;99.90;;;;;;4990488;28;20491;-74
2022/01/17 09:23:58;;;;;;;33.38;3.63;;;9.10;99.90;;;;;;4975102;28;20050;-74
2022/01/17 09:26:27;;;;;;;31.55;4.05;;;9.20;99.90;;;;;;4990856;28;20317;-74
2022/01/17 09:28:55;;;;;;;30.48;3.80;;;9.20;99.90;;;;;;4974267;28;20042;-75
2022/01/17 09:31:21;;;;;;;30.40;3.92;;;9.20;99.90;;;;;;4990337;28;20096;-72
2022/01/17 09:33:47;;;;;;;29.02;3.83;;;9.30;99.90;;;;;;4958764;28;20057;-72
2022/01/17 09:36:14;;;;;;;33.35;5.05;;;9.30;99.90;;;;;;4990644;28;20046;-72
2022/01/17 09:38:40;;;;;;;28.70;3.40;;;9.40;99.90;;;;;;4990313;28;20049;-72
2022/01/17 09:41:06;;;;;;;26.60;3.80;;;9.40;99.90;;;;;;4973732;28;20050;-72
2022/01/17 09:43:34;;;;;;;30.98;4.38;;;9.40;99.90;;;;;;4974837;28;20043;-73
2022/01/17 09:45:59;;;;;;;30.40;3.97;;;9.40;99.90;;;;;;4990457;28;20124;-72
2022/01/17 09:48:34;;;;;;;33.45;4.13;;;9.50;99.90;;;;;;4994474;28;20050;-73
2022/01/17 09:51:15;;;;;;;30.83;4.30;;;9.40;99.90;;;;;;4977190;28;20046;-72
2022/01/17 09:53:42;;;;;;;35.75;4.47;;;9.40;99.90;;;;;;4994349;28;20109;-72
2022/01/17 09:56:08;;;;;;;28.63;3.60;;;9.40;99.90;;;;;;4962147;28;20510;-73
2022/01/17 09:58:38;;;;;;;32.55;4.90;;;9.50;99.90;;;;;;4994014;28;20046;-73
2022/01/17 10:01:05;;;;;;;34.05;4.65;;;9.50;99.90;;;;;;4977319;28;20529;-73
2022/01/17 10:03:32;;;;;;;36.85;4.78;;;9.50;99.90;;;;;;4966965;28;20049;-72
2022/01/17 10:05:58;;;;;;;38.63;5.07;;;9.60;99.90;;;;;;5010213;28;20454;-72
2022/01/17 10:08:24;;;;;;;33.83;4.85;;;9.60;99.90;;;;;;4977325;28;20050;-73
2022/01/17 10:10:56;;;;;;;29.40;4.57;;;9.60;99.90;;;;;;4992483;28;20058;-72
2022/01/17 10:13:26;;;;;;;29.67;4.65;;;9.70;99.90;;;;;;4993432;28;20098;-73
2022/01/17 10:16:11;;;;;;;40.03;5.00;;;9.70;99.90;;;;;;4993478;28;20082;-73
2022/01/17 10:18:50;;;;;;;35.47;5.45;;;9.70;99.90;;;;;;4977611;28;20503;-73
2022/01/17 10:21:34;;;;;;;36.10;5.68;;;9.80;99.90;;;;;;4992468;28;20069;-72
2022/01/17 10:37:17;;;;;;;37.63;5.32;;;10.00;99.90;;;;;;4993280;28;20046;-73
2022/01/17 10:39:57;;;;;;;34.67;5.22;;;10.10;99.90;;;;;;4976850;28;20078;-73
2022/01/17 10:42:34;;;;;;;39.53;5.45;;;10.10;99.90;;;;;;4976514;28;20058;-74
2022/01/17 10:45:04;;;;;;;24.38;4.65;;;10.00;99.90;;;;;;4977324;28;20046;-74
2022/01/17 10:47:31;;;;;;;46.00;5.45;;;10.00;99.90;;;;;;4977101;28;20141;-74
2022/01/17 10:50:00;;;;;;;46.15;7.05;;;10.20;99.90;;;;;;4993147;28;20129;-74
2022/01/17 10:52:39;;;;;;;39.97;5.63;;;10.00;99.90;;;;;;4976660;28;20058;-74
2022/01/17 10:55:30;;;;;;;27.75;4.38;;;10.00;99.90;;;;;;4993281;28;20128;-74
2022/01/17 10:57:57;;;;;;;;;;;9.90;99.90;;;;;;5003555;28;20058;-74
2022/01/17 11:00:47;;;;;;;35.78;5.13;;;9.90;99.90;;;;;;4992556;28;19936;-74
2022/01/17 11:03:16;;;;;;;31.25;4.88;;;10.00;99.90;;;;;;4981186;28;20050;-74
2022/01/17 11:05:47;;;;;;;32.45;5.63;;;10.10;99.90;;;;;;4992932;28;20058;-74
2022/01/17 11:08:16;;;;;;;32.28;5.05;;;10.10;99.90;;;;;;4992675;28;20185;-74
2022/01/17 11:10:44;;;;;;;38.03;5.18;;;10.10;99.90;;;;;;4976304;28;20049;-74
2022/01/17 11:13:13;;;;;;;42.42;5.68;;;10.10;99.90;;;;;;4975350;28;20580;-74
2022/01/17 11:15:40;;;;;;;44.85;5.22;;;10.10;99.90;;;;;;4992976;28;20096;-74
2022/01/17 11:18:17;;;;;;;37.97;5.43;;;10.00;99.90;;;;;;4992775;28;20061;-74
2022/01/17 11:20:44;;;;;;;32.58;5.18;;;10.00;99.90;;;;;;4992366;28;20105;-74
2022/01/17 11:23:10;;;;;;;36.83;5.88;;;10.00;99.90;;;;;;4976195;28;20081;-74
2022/01/17 11:25:41;;;;;;;39.05;5.40;;;10.00;99.90;;;;;;4992585;28;20046;-73
2022/01/17 11:28:08;;;;;;;38.72;4.93;;;10.00;99.90;;;;;;4976461;28;20082;-74
2022/01/17 11:30:36;;;;;;;39.97;6.00;;;10.00;99.90;;;;;;4992220;28;20042;-74
2022/01/17 11:33:04;;;;;;;38.92;5.75;;;10.00;99.90;;;;;;4992122;28;20384;-74
2022/01/17 11:35:33;;;;;;;40.53;6.63;;;10.00;99.90;;;;;;4960262;28;20145;-73
2022/01/17 11:38:02;;;;;;;46.85;6.05;;;10.00;99.90;;;;;;4991278;28;20046;-75
2022/01/17 11:40:31;;;;;;;39.75;6.25;;;10.00;99.90;;;;;;4991401;28;20047;-74
2022/01/17 11:42:59;;;;;;;43.92;5.50;;;10.10;99.90;;;;;;4991688;28;20487;-74
2022/01/17 11:45:25;;;;;;;41.33;5.43;;;10.10;99.90;;;;;;4991947;28;20108;-74
2022/01/17 11:47:57;;;;;;;37.35;5.47;;;10.10;99.90;;;;;;5007158;28;20049;-74
2022/01/17 11:50:32;;;;;;;44.15;6.40;;;10.20;99.90;;;;;;5002929;28;20516;-74
2022/01/17 11:53:10;;;;;;;36.25;5.57;;;10.30;99.90;;;;;;4986988;28;20048;-74
2022/01/17 11:55:39;;;;;;;41.45;6.35;;;10.50;99.90;;;;;;4974939;28;20514;-74
2022/01/17 11:58:27;;;;;;;31.60;5.22;;;11.00;99.90;;;;;;4991813;28;20121;-75
2022/01/17 12:01:01;;;;;;;42.80;6.07;;;11.10;99.90;;;;;;4974775;28;20043;-74
2022/01/17 12:03:38;;;;;;;40.47;6.20;;;11.00;99.90;;;;;;4980289;28;20500;-75
2022/01/17 12:06:16;;;;;;;47.58;6.10;;;10.80;99.90;;;;;;4966726;28;20504;-73
2022/01/17 12:08:42;;;;;;;41.25;5.50;;;10.70;99.90;;;;;;4976737;28;20053;-80
2022/01/17 12:11:23;;;;;;;41.58;6.13;;;10.70;99.90;;;;;;4991380;28;20043;-82
2022/01/17 12:13:49;;;;;;;38.70;5.57;;;10.90;99.90;;;;;;4991355;28;20106;-80
2022/01/17 12:16:26;;;;;;;42.58;6.10;;;11.10;99.90;;;;;;4975055;28;20558;-76
2022/01/17 12:19:03;;;;;;;35.08;5.00;;;11.40;99.90;;;;;;4990175;28;20121;-78
2022/01/17 12:21:40;;;;;;;37.72;8.52;;;11.50;99.90;;;;;;5015741;28;20337;-77
2022/01/17 12:24:31;;;;;;;42.28;6.07;;;11.80;99.90;;;;;;4975784;28;20039;-77
2022/01/17 12:27:03;;;;;;;45.15;6.43;;;11.80;99.90;;;;;;4975400;28;20051;-77
2022/01/17 12:29:54;;;;;;;37.38;5.95;;;11.60;99.90;;;;;;4977106;28;20069;-78
2022/01/17 12:32:28;;;;;;;31.50;5.43;;;11.40;99.90;;;;;;4980294;28;20117;-77
2022/01/17 12:35:18;;;;;;;37.97;5.53;;;11.30;99.90;;;;;;4989147;28;20050;-77
2022/01/17 12:37:49;;;;;;;36.55;5.65;;;11.30;99.90;;;;;;4973150;28;20495;-77
2022/01/17 12:40:29;;;;;;;41.08;6.45;;;11.30;99.90;;;;;;4993878;28;20046;-77
2022/01/17 12:43:14;;;;;;;36.80;5.25;;;11.20;99.90;;;;;;4991130;28;20400;-77
2022/01/17 12:45:41;;;;;;;41.78;6.57;;;11.00;99.90;;;;;;4973437;28;20217;-79
2022/01/17 12:48:10;;;;;;;31.80;4.82;;;10.90;99.90;;;;;;4975186;28;20448;-79
2022/01/17 12:50:38;;;;;;;39.63;5.07;;;10.90;99.90;;;;;;4975232;28;20050;-79
2022/01/17 12:53:06;;;;;;;31.33;5.57;;;11.00;99.90;;;;;;4975148;28;20042;-77
2022/01/17 12:55:36;;;;;;;28.92;5.25;;;11.00;99.90;;;;;;4974530;28;20403;-78
2022/01/17 12:58:14;;;;;;;28.17;3.88;;;10.90;99.90;;;;;;4990650;28;20053;-77
2022/01/17 13:00:45;;;;;;;34.17;6.28;;;10.80;99.90;;;;;;4974686;28;20132;-76
2022/01/17 13:03:12;;;;;;;29.77;4.93;;;10.80;99.90;;;;;;4980526;28;20399;-77
2022/01/17 13:05:39;;;;;;;30.05;4.22;;;10.60;99.90;;;;;;4984317;28;20046;-78
2022/01/17 13:08:05;;;;;;;33.63;4.93;;;10.60;99.90;;;;;;4974482;28;20514;-75
2022/01/17 13:10:32;;;;;;;32.13;4.22;;;10.60;99.90;;;;;;4990661;28;20042;-75
2022/01/17 13:12:59;;;;;;;24.58;3.78;;;10.80;99.90;;;;;;4990498;28;20105;-77
2022/01/17 13:15:25;;;;;;;32.13;4.63;;;11.00;99.90;;;;;;4991096;28;20092;-79
2022/01/17 13:17:51;;;;;;;26.15;4.70;;;11.10;99.90;;;;;;4974766;28;20621;-75
2022/01/17 13:20:18;;;;;;;25.98;4.40;;;11.00;99.90;;;;;;4990393;28;20050;-76